Nearby METAR Reports

 

KMHT - Manchester, New Hampshire, USA
Distance from station: W 16mi, 26km
Updated: Mon, 18-Mar-2019 3:53pm EDT
Few Clouds
Few Clouds
 Wind from WSW
Wind: WSW 9 mph , 15 km/h
Temperature: 39°F , 4°C
Wind Chill: 33°F , 1°C
Dew Point: 1°F , -17°C
Humidity: 20%
Barometer: 30.17 inHg , 1021.7 hPa
Clouds: Few Clouds
Visibility: 10 miles , 16 km
Cloud details: Few Clouds 5500 ft
2019/03/18 19:53 KMHT 181953Z 25008KT 10SM FEW055 04/M17 A3017 RMK AO2 SLP235 T00441172
KPSM - Portsmouth/Pease, New Hampshire, USA
Distance from station: ENE 17mi, 27km
Updated: Mon, 18-Mar-2019 3:56pm EDT
Few Clouds
Few Clouds
 Wind from W
Wind: W 12 mph , 19 km/h
Temperature: 39°F , 4°C
Wind Chill: 32°F , 0°C
Dew Point: 3°F , -16°C
Humidity: 22%
Barometer: 30.16 inHg , 1021.3 hPa
Clouds: Few Clouds
Visibility: 10 miles , 16 km
Cloud details: Few Clouds 6000 ft
2019/03/18 19:56 KPSM 181956Z 26010KT 10SM FEW060 04/M16 A3016 RMK AO2A SLP216 T00391165
 
KASH - Nashua/Boire Fld, New Hampshire, USA
Distance from station: WSW 24mi, 38km
Updated: Mon, 18-Mar-2019 3:56pm EDT
Partly cloudy
Partly cloudy
 Wind from NW
Wind: NW 6 mph , 9 km/h, Gust: 20 mph , 31 km/h
Temperature: 39°F , 4°C
Wind Chill: 35°F , 2°C
Dew Point: 3°F , -16°C
Humidity: 22%
Barometer: 30.19 inHg , 1022.4 hPa
Clouds: Partly cloudy
Visibility: 10 miles , 16 km
Cloud details: Partly cloudy 8000 ft
2019/03/18 19:56 KASH 181956Z 31005G17KT 10SM SCT080 04/M16 A3019 RMK AO2 SLP235 T00441156 $
KDAW - Rochester, New Hampshire, USA
Distance from station: NNE 24mi, 39km
Updated: Mon, 18-Mar-2019 3:51pm EDT
Clear
Clear
 Wind from NW
Wind: NW 14 mph , 22 km/h, Gust: 22 mph , 35 km/h
Temperature: 37°F , 3°C
Wind Chill: 28°F , -2°C
Dew Point: 3°F , -16°C
Humidity: 23%
Barometer: 30.16 inHg , 1021.3 hPa
Clouds: Clear
Visibility: 10 miles , 16 km
2019/03/18 19:51 KDAW 181951Z AUTO 31012G19KT 10SM CLR 03/M16 A3016 RMK AO2 SLP214 T00281156